sensor_id;sensor_type;location;lat;lon;timestamp;P1;durP1;ratioP1;P2;durP2;ratioP2
41466;SDS011;27205;53.690;19.948;2022-10-31T00:00:07;7.90;;;7.20;;
41466;SDS011;27205;53.690;19.948;2022-10-31T00:05:31;7.10;;;6.60;;
41466;SDS011;27205;53.690;19.948;2022-10-31T00:10:37;8.50;;;7.70;;
41466;SDS011;27205;53.690;19.948;2022-10-31T00:15:41;7.50;;;6.90;;
41466;SDS011;27205;53.690;19.948;2022-10-31T00:20:44;7.30;;;6.80;;
41466;SDS011;27205;53.690;19.948;2022-10-31T00:25:48;7.70;;;7.00;;
41466;SDS011;27205;53.690;19.948;2022-10-31T00:30:51;7.30;;;6.80;;
41466;SDS011;27205;53.690;19.948;2022-10-31T00:35:54;8.60;;;7.90;;
41466;SDS011;27205;53.690;19.948;2022-10-31T00:40:58;8.70;;;7.90;;
41466;SDS011;27205;53.690;19.948;2022-10-31T00:46:01;8.40;;;7.70;;
41466;SDS011;27205;53.690;19.948;2022-10-31T00:51:05;9.00;;;8.30;;
41466;SDS011;27205;53.690;19.948;2022-10-31T00:56:09;8.30;;;7.60;;
41466;SDS011;27205;53.690;19.948;2022-10-31T01:01:12;4.90;;;4.50;;
41466;SDS011;27205;53.690;19.948;2022-10-31T01:06:15;7.60;;;7.00;;
41466;SDS011;27205;53.690;19.948;2022-10-31T01:11:20;6.90;;;6.40;;
41466;SDS011;27205;53.690;19.948;2022-10-31T01:16:25;7.00;;;6.40;;
41466;SDS011;27205;53.690;19.948;2022-10-31T01:21:29;8.50;;;7.80;;
41466;SDS011;27205;53.690;19.948;2022-10-31T01:26:33;9.30;;;8.60;;
41466;SDS011;27205;53.690;19.948;2022-10-31T01:31:37;8.80;;;8.00;;
41466;SDS011;27205;53.690;19.948;2022-10-31T01:36:42;7.40;;;6.80;;
41466;SDS011;27205;53.690;19.948;2022-10-31T01:41:48;8.20;;;7.50;;
41466;SDS011;27205;53.690;19.948;2022-10-31T01:52:20;7.10;;;6.50;;
41466;SDS011;27205;53.690;19.948;2022-10-31T01:57:29;6.80;;;6.30;;
41466;SDS011;27205;53.690;19.948;2022-10-31T02:02:34;6.60;;;6.00;;
41466;SDS011;27205;53.690;19.948;2022-10-31T02:13:07;6.60;;;6.10;;
41466;SDS011;27205;53.690;19.948;2022-10-31T02:18:11;6.50;;;6.00;;
41466;SDS011;27205;53.690;19.948;2022-10-31T02:23:24;6.30;;;5.80;;
41466;SDS011;27205;53.690;19.948;2022-10-31T02:28:57;6.10;;;5.60;;
41466;SDS011;27205;53.690;19.948;2022-10-31T02:39:40;12.70;;;8.60;;
41466;SDS011;27205;53.690;19.948;2022-10-31T02:50:29;13.70;;;8.20;;
41466;SDS011;27205;53.690;19.948;2022-10-31T03:06:23;7.40;;;6.60;;
41466;SDS011;27205;53.690;19.948;2022-10-31T03:12:01;8.40;;;7.00;;
41466;SDS011;27205;53.690;19.948;2022-10-31T03:17:08;16.90;;;7.90;;
41466;SDS011;27205;53.690;19.948;2022-10-31T03:22:20;10.80;;;7.90;;
41466;SDS011;27205;53.690;19.948;2022-10-31T03:27:27;12.60;;;7.90;;
41466;SDS011;27205;53.690;19.948;2022-10-31T03:32:36;16.10;;;10.10;;
41466;SDS011;27205;53.690;19.948;2022-10-31T03:37:45;22.30;;;10.10;;
41466;SDS011;27205;53.690;19.948;2022-10-31T03:42:53;14.40;;;9.10;;
41466;SDS011;27205;53.690;19.948;2022-10-31T03:48:02;19.30;;;8.30;;
41466;SDS011;27205;53.690;19.948;2022-10-31T03:53:08;10.70;;;7.20;;
41466;SDS011;27205;53.690;19.948;2022-10-31T03:58:22;13.00;;;8.60;;
41466;SDS011;27205;53.690;19.948;2022-10-31T04:03:30;9.00;;;7.40;;
41466;SDS011;27205;53.690;19.948;2022-10-31T04:08:43;10.60;;;6.40;;
41466;SDS011;27205;53.690;19.948;2022-10-31T04:13:51;9.10;;;6.80;;
41466;SDS011;27205;53.690;19.948;2022-10-31T04:18:56;7.80;;;6.30;;
41466;SDS011;27205;53.690;19.948;2022-10-31T04:24:00;7.90;;;7.00;;
41466;SDS011;27205;53.690;19.948;2022-10-31T04:29:03;16.20;;;7.10;;
41466;SDS011;27205;53.690;19.948;2022-10-31T04:34:06;17.40;;;7.10;;
41466;SDS011;27205;53.690;19.948;2022-10-31T04:39:10;7.30;;;6.10;;
41466;SDS011;27205;53.690;19.948;2022-10-31T04:44:13;7.00;;;6.40;;
41466;SDS011;27205;53.690;19.948;2022-10-31T04:49:16;8.40;;;7.70;;
41466;SDS011;27205;53.690;19.948;2022-10-31T04:54:20;7.30;;;6.80;;
41466;SDS011;27205;53.690;19.948;2022-10-31T04:59:23;7.40;;;6.80;;
41466;SDS011;27205;53.690;19.948;2022-10-31T05:04:26;7.90;;;7.30;;
41466;SDS011;27205;53.690;19.948;2022-10-31T05:09:29;8.50;;;7.80;;
41466;SDS011;27205;53.690;19.948;2022-10-31T05:14:32;7.30;;;6.70;;
41466;SDS011;27205;53.690;19.948;2022-10-31T05:19:36;6.80;;;6.30;;
41466;SDS011;27205;53.690;19.948;2022-10-31T05:24:39;7.60;;;7.10;;
41466;SDS011;27205;53.690;19.948;2022-10-31T05:29:42;6.90;;;6.40;;
41466;SDS011;27205;53.690;19.948;2022-10-31T05:34:45;7.80;;;7.20;;
41466;SDS011;27205;53.690;19.948;2022-10-31T05:39:49;6.80;;;6.20;;
41466;SDS011;27205;53.690;19.948;2022-10-31T05:44:52;7.10;;;6.60;;
41466;SDS011;27205;53.690;19.948;2022-10-31T05:49:55;7.10;;;6.60;;
41466;SDS011;27205;53.690;19.948;2022-10-31T05:54:58;7.00;;;6.50;;
41466;SDS011;27205;53.690;19.948;2022-10-31T06:00:02;8.60;;;7.90;;
41466;SDS011;27205;53.690;19.948;2022-10-31T06:05:07;6.70;;;6.10;;
41466;SDS011;27205;53.690;19.948;2022-10-31T06:10:11;7.60;;;7.00;;
41466;SDS011;27205;53.690;19.948;2022-10-31T06:15:14;6.90;;;6.40;;
41466;SDS011;27205;53.690;19.948;2022-10-31T06:20:25;8.00;;;7.30;;
41466;SDS011;27205;53.690;19.948;2022-10-31T06:25:28;7.30;;;6.70;;
41466;SDS011;27205;53.690;19.948;2022-10-31T06:30:31;7.00;;;6.50;;
41466;SDS011;27205;53.690;19.948;2022-10-31T06:35:35;8.30;;;7.70;;
41466;SDS011;27205;53.690;19.948;2022-10-31T06:40:38;6.80;;;6.30;;
41466;SDS011;27205;53.690;19.948;2022-10-31T06:45:41;7.20;;;6.60;;
41466;SDS011;27205;53.690;19.948;2022-10-31T06:50:44;6.30;;;5.70;;
41466;SDS011;27205;53.690;19.948;2022-10-31T06:55:48;8.30;;;7.50;;
41466;SDS011;27205;53.690;19.948;2022-10-31T07:00:51;7.10;;;6.50;;
41466;SDS011;27205;53.690;19.948;2022-10-31T07:05:55;7.10;;;6.50;;
41466;SDS011;27205;53.690;19.948;2022-10-31T07:10:59;7.80;;;7.10;;
41466;SDS011;27205;53.690;19.948;2022-10-31T07:16:03;6.40;;;5.80;;
41466;SDS011;27205;53.690;19.948;2022-10-31T07:21:09;6.50;;;5.90;;
41466;SDS011;27205;53.690;19.948;2022-10-31T07:26:12;4.70;;;4.40;;
41466;SDS011;27205;53.690;19.948;2022-10-31T07:31:16;6.70;;;6.00;;
41466;SDS011;27205;53.690;19.948;2022-10-31T07:36:19;6.40;;;5.80;;
41466;SDS011;27205;53.690;19.948;2022-10-31T07:41:22;5.40;;;4.90;;
41466;SDS011;27205;53.690;19.948;2022-10-31T07:46:26;6.10;;;5.60;;
41466;SDS011;27205;53.690;19.948;2022-10-31T07:51:29;6.10;;;5.70;;
41466;SDS011;27205;53.690;19.948;2022-10-31T07:56:32;8.20;;;7.40;;
41466;SDS011;27205;53.690;19.948;2022-10-31T08:01:35;10.50;;;9.60;;
41466;SDS011;27205;53.690;19.948;2022-10-31T08:06:38;9.60;;;8.70;;
41466;SDS011;27205;53.690;19.948;2022-10-31T08:11:42;7.00;;;6.40;;
41466;SDS011;27205;53.690;19.948;2022-10-31T08:16:45;7.40;;;6.60;;
41466;SDS011;27205;53.690;19.948;2022-10-31T08:21:52;6.80;;;6.00;;
41466;SDS011;27205;53.690;19.948;2022-10-31T08:26:57;7.60;;;6.10;;
41466;SDS011;27205;53.690;19.948;2022-10-31T08:32:01;5.40;;;4.90;;
41466;SDS011;27205;53.690;19.948;2022-10-31T08:37:04;5.40;;;4.90;;
41466;SDS011;27205;53.690;19.948;2022-10-31T08:42:07;6.00;;;5.50;;
41466;SDS011;27205;53.690;19.948;2022-10-31T08:47:10;6.00;;;5.50;;
41466;SDS011;27205;53.690;19.948;2022-10-31T08:52:14;7.10;;;6.40;;
41466;SDS011;27205;53.690;19.948;2022-10-31T08:57:17;5.30;;;4.90;;
41466;SDS011;27205;53.690;19.948;2022-10-31T09:02:21;6.80;;;6.10;;
41466;SDS011;27205;53.690;19.948;2022-10-31T09:07:24;6.50;;;5.30;;
41466;SDS011;27205;53.690;19.948;2022-10-31T09:12:28;5.50;;;4.70;;
41466;SDS011;27205;53.690;19.948;2022-10-31T09:17:31;6.30;;;5.70;;
41466;SDS011;27205;53.690;19.948;2022-10-31T09:22:34;6.80;;;6.00;;
41466;SDS011;27205;53.690;19.948;2022-10-31T09:27:38;5.20;;;4.80;;
41466;SDS011;27205;53.690;19.948;2022-10-31T09:32:41;6.30;;;5.40;;
41466;SDS011;27205;53.690;19.948;2022-10-31T09:37:44;6.00;;;5.40;;
41466;SDS011;27205;53.690;19.948;2022-10-31T09:53:16;6.20;;;5.60;;
41466;SDS011;27205;53.690;19.948;2022-10-31T09:58:29;6.20;;;5.60;;
41466;SDS011;27205;53.690;19.948;2022-10-31T10:03:41;6.00;;;5.40;;
41466;SDS011;27205;53.690;19.948;2022-10-31T10:08:50;5.30;;;4.80;;
41466;SDS011;27205;53.690;19.948;2022-10-31T10:13:55;6.40;;;5.80;;
41466;SDS011;27205;53.690;19.948;2022-10-31T10:29:36;6.40;;;5.90;;
41466;SDS011;27205;53.690;19.948;2022-10-31T10:34:45;6.50;;;5.90;;
41466;SDS011;27205;53.690;19.948;2022-10-31T10:40:00;6.90;;;5.90;;
41466;SDS011;27205;53.690;19.948;2022-10-31T10:45:17;6.90;;;6.30;;
41466;SDS011;27205;53.690;19.948;2022-10-31T10:50:42;6.90;;;5.80;;
41466;SDS011;27205;53.690;19.948;2022-10-31T10:55:52;9.40;;;8.50;;
41466;SDS011;27205;53.690;19.948;2022-10-31T11:01:08;9.00;;;6.80;;
41466;SDS011;27205;53.690;19.948;2022-10-31T11:06:23;6.70;;;6.00;;
41466;SDS011;27205;53.690;19.948;2022-10-31T11:11:28;8.20;;;7.40;;
41466;SDS011;27205;53.690;19.948;2022-10-31T11:16:35;7.80;;;7.00;;
41466;SDS011;27205;53.690;19.948;2022-10-31T11:21:43;8.30;;;7.50;;
41466;SDS011;27205;53.690;19.948;2022-10-31T11:32:21;9.50;;;8.70;;
41466;SDS011;27205;53.690;19.948;2022-10-31T11:37:31;9.40;;;8.50;;
41466;SDS011;27205;53.690;19.948;2022-10-31T11:42:39;9.10;;;8.40;;
41466;SDS011;27205;53.690;19.948;2022-10-31T11:47:47;9.60;;;8.70;;
41466;SDS011;27205;53.690;19.948;2022-10-31T11:53:00;7.90;;;7.30;;
41466;SDS011;27205;53.690;19.948;2022-10-31T11:58:04;7.70;;;7.10;;
41466;SDS011;27205;53.690;19.948;2022-10-31T12:08:26;8.00;;;7.30;;
41466;SDS011;27205;53.690;19.948;2022-10-31T12:13:34;7.90;;;7.30;;
41466;SDS011;27205;53.690;19.948;2022-10-31T12:18:47;8.50;;;7.70;;
41466;SDS011;27205;53.690;19.948;2022-10-31T12:45:54;7.70;;;7.10;;
41466;SDS011;27205;53.690;19.948;2022-10-31T13:01:34;8.00;;;7.30;;
41466;SDS011;27205;53.690;19.948;2022-10-31T13:06:43;9.10;;;8.30;;
41466;SDS011;27205;53.690;19.948;2022-10-31T13:12:10;8.10;;;7.50;;
41466;SDS011;27205;53.690;19.948;2022-10-31T13:17:22;7.90;;;7.20;;
41466;SDS011;27205;53.690;19.948;2022-10-31T13:22:31;8.70;;;7.90;;
41466;SDS011;27205;53.690;19.948;2022-10-31T13:27:49;8.20;;;7.40;;
41466;SDS011;27205;53.690;19.948;2022-10-31T13:33:17;8.00;;;7.30;;
41466;SDS011;27205;53.690;19.948;2022-10-31T13:43:59;8.60;;;7.70;;
41466;SDS011;27205;53.690;19.948;2022-10-31T13:54:34;8.20;;;7.50;;
41466;SDS011;27205;53.690;19.948;2022-10-31T13:59:39;8.90;;;7.70;;
41466;SDS011;27205;53.690;19.948;2022-10-31T14:04:49;10.00;;;8.60;;
41466;SDS011;27205;53.690;19.948;2022-10-31T14:09:59;7.90;;;7.20;;
41466;SDS011;27205;53.690;19.948;2022-10-31T14:20:34;8.20;;;7.50;;
41466;SDS011;27205;53.690;19.948;2022-10-31T14:25:41;7.60;;;7.00;;
41466;SDS011;27205;53.690;19.948;2022-10-31T14:30:54;8.60;;;7.20;;
41466;SDS011;27205;53.690;19.948;2022-10-31T14:36:10;8.40;;;7.70;;
41466;SDS011;27205;53.690;19.948;2022-10-31T14:41:29;9.40;;;8.40;;
41466;SDS011;27205;53.690;19.948;2022-10-31T14:52:25;9.20;;;8.30;;
41466;SDS011;27205;53.690;19.948;2022-10-31T14:57:29;9.10;;;8.30;;
41466;SDS011;27205;53.690;19.948;2022-10-31T15:13:41;9.50;;;8.70;;
41466;SDS011;27205;53.690;19.948;2022-10-31T15:18:51;9.30;;;8.40;;
41466;SDS011;27205;53.690;19.948;2022-10-31T15:23:58;9.20;;;8.40;;
41466;SDS011;27205;53.690;19.948;2022-10-31T15:29:10;9.10;;;8.30;;
41466;SDS011;27205;53.690;19.948;2022-10-31T15:39:24;8.40;;;7.70;;
41466;SDS011;27205;53.690;19.948;2022-10-31T15:44:34;9.10;;;8.40;;
41466;SDS011;27205;53.690;19.948;2022-10-31T15:49:47;9.80;;;8.80;;
41466;SDS011;27205;53.690;19.948;2022-10-31T15:54:53;8.30;;;7.70;;
41466;SDS011;27205;53.690;19.948;2022-10-31T16:00:00;8.50;;;7.80;;
41466;SDS011;27205;53.690;19.948;2022-10-31T16:05:14;9.30;;;8.60;;
41466;SDS011;27205;53.690;19.948;2022-10-31T16:10:25;12.40;;;11.50;;
41466;SDS011;27205;53.690;19.948;2022-10-31T16:15:29;12.70;;;11.70;;
41466;SDS011;27205;53.690;19.948;2022-10-31T16:20:36;21.10;;;19.60;;
41466;SDS011;27205;53.690;19.948;2022-10-31T16:25:40;12.30;;;11.20;;
41466;SDS011;27205;53.690;19.948;2022-10-31T16:30:44;18.50;;;17.00;;
41466;SDS011;27205;53.690;19.948;2022-10-31T16:35:50;35.60;;;32.60;;
41466;SDS011;27205;53.690;19.948;2022-10-31T16:41:07;35.70;;;32.60;;
41466;SDS011;27205;53.690;19.948;2022-10-31T16:46:14;36.60;;;33.80;;
41466;SDS011;27205;53.690;19.948;2022-10-31T16:51:21;38.60;;;35.50;;
41466;SDS011;27205;53.690;19.948;2022-10-31T16:56:27;43.70;;;40.10;;
41466;SDS011;27205;53.690;19.948;2022-10-31T17:01:32;48.80;;;44.40;;
41466;SDS011;27205;53.690;19.948;2022-10-31T17:06:38;42.20;;;38.60;;
41466;SDS011;27205;53.690;19.948;2022-10-31T17:11:43;48.20;;;43.50;;
41466;SDS011;27205;53.690;19.948;2022-10-31T17:16:51;51.90;;;47.00;;
41466;SDS011;27205;53.690;19.948;2022-10-31T17:21:54;48.80;;;44.60;;
41466;SDS011;27205;53.690;19.948;2022-10-31T17:26:58;44.20;;;40.50;;
41466;SDS011;27205;53.690;19.948;2022-10-31T17:32:01;40.30;;;37.00;;
41466;SDS011;27205;53.690;19.948;2022-10-31T17:37:08;38.20;;;35.10;;
41466;SDS011;27205;53.690;19.948;2022-10-31T17:42:14;37.00;;;34.00;;
41466;SDS011;27205;53.690;19.948;2022-10-31T17:47:17;37.30;;;34.40;;
41466;SDS011;27205;53.690;19.948;2022-10-31T17:52:20;38.60;;;35.40;;
41466;SDS011;27205;53.690;19.948;2022-10-31T17:57:24;32.00;;;29.40;;
41466;SDS011;27205;53.690;19.948;2022-10-31T18:02:27;19.60;;;17.80;;
41466;SDS011;27205;53.690;19.948;2022-10-31T18:07:31;17.60;;;16.00;;
41466;SDS011;27205;53.690;19.948;2022-10-31T18:12:35;17.10;;;15.50;;
41466;SDS011;27205;53.690;19.948;2022-10-31T18:17:39;18.20;;;16.60;;
41466;SDS011;27205;53.690;19.948;2022-10-31T18:22:44;17.20;;;15.80;;
41466;SDS011;27205;53.690;19.948;2022-10-31T18:27:47;19.80;;;18.00;;
41466;SDS011;27205;53.690;19.948;2022-10-31T18:32:50;19.80;;;18.30;;
41466;SDS011;27205;53.690;19.948;2022-10-31T18:37:56;19.60;;;18.00;;
41466;SDS011;27205;53.690;19.948;2022-10-31T18:43:04;19.00;;;17.40;;
41466;SDS011;27205;53.690;19.948;2022-10-31T18:48:10;15.70;;;14.50;;
41466;SDS011;27205;53.690;19.948;2022-10-31T18:53:16;20.90;;;19.20;;
41466;SDS011;27205;53.690;19.948;2022-10-31T18:58:19;21.70;;;20.00;;
41466;SDS011;27205;53.690;19.948;2022-10-31T19:03:28;20.00;;;18.20;;
41466;SDS011;27205;53.690;19.948;2022-10-31T19:08:32;21.70;;;19.90;;
41466;SDS011;27205;53.690;19.948;2022-10-31T19:18:39;16.00;;;14.60;;
41466;SDS011;27205;53.690;19.948;2022-10-31T19:23:44;20.20;;;18.60;;
41466;SDS011;27205;53.690;19.948;2022-10-31T19:28:47;23.20;;;21.40;;
41466;SDS011;27205;53.690;19.948;2022-10-31T19:33:51;22.30;;;20.40;;
41466;SDS011;27205;53.690;19.948;2022-10-31T19:38:55;22.60;;;20.70;;
41466;SDS011;27205;53.690;19.948;2022-10-31T19:43:58;23.80;;;21.80;;
41466;SDS011;27205;53.690;19.948;2022-10-31T19:54:05;23.30;;;21.20;;
41466;SDS011;27205;53.690;19.948;2022-10-31T19:59:09;25.50;;;23.30;;
41466;SDS011;27205;53.690;19.948;2022-10-31T20:04:13;25.30;;;23.00;;
41466;SDS011;27205;53.690;19.948;2022-10-31T20:09:17;23.20;;;21.30;;
41466;SDS011;27205;53.690;19.948;2022-10-31T20:14:20;24.70;;;22.60;;
41466;SDS011;27205;53.690;19.948;2022-10-31T20:19:23;25.00;;;22.90;;
41466;SDS011;27205;53.690;19.948;2022-10-31T20:24:29;23.80;;;22.00;;
41466;SDS011;27205;53.690;19.948;2022-10-31T20:29:34;24.20;;;22.30;;
41466;SDS011;27205;53.690;19.948;2022-10-31T20:34:37;22.40;;;20.60;;
41466;SDS011;27205;53.690;19.948;2022-10-31T20:39:41;24.50;;;22.50;;
41466;SDS011;27205;53.690;19.948;2022-10-31T20:44:44;22.10;;;20.30;;
41466;SDS011;27205;53.690;19.948;2022-10-31T20:49:47;21.90;;;20.20;;
41466;SDS011;27205;53.690;19.948;2022-10-31T20:54:51;23.20;;;21.40;;
41466;SDS011;27205;53.690;19.948;2022-10-31T20:59:54;18.30;;;16.90;;
41466;SDS011;27205;53.690;19.948;2022-10-31T21:04:57;15.50;;;14.20;;
41466;SDS011;27205;53.690;19.948;2022-10-31T21:10:00;14.60;;;13.50;;
41466;SDS011;27205;53.690;19.948;2022-10-31T21:15:04;13.50;;;12.50;;
41466;SDS011;27205;53.690;19.948;2022-10-31T21:20:08;10.80;;;9.90;;
41466;SDS011;27205;53.690;19.948;2022-10-31T21:25:12;11.20;;;10.30;;
41466;SDS011;27205;53.690;19.948;2022-10-31T21:30:15;9.90;;;9.20;;
41466;SDS011;27205;53.690;19.948;2022-10-31T21:35:18;9.80;;;9.10;;
41466;SDS011;27205;53.690;19.948;2022-10-31T21:40:22;10.90;;;10.10;;
41466;SDS011;27205;53.690;19.948;2022-10-31T21:45:26;10.70;;;9.80;;
41466;SDS011;27205;53.690;19.948;2022-10-31T21:50:29;6.40;;;6.00;;
41466;SDS011;27205;53.690;19.948;2022-10-31T21:55:32;9.80;;;9.10;;
41466;SDS011;27205;53.690;19.948;2022-10-31T22:00:35;13.90;;;12.60;;
41466;SDS011;27205;53.690;19.948;2022-10-31T22:05:39;12.50;;;11.50;;
41466;SDS011;27205;53.690;19.948;2022-10-31T22:10:42;12.70;;;11.60;;
41466;SDS011;27205;53.690;19.948;2022-10-31T22:15:45;11.40;;;10.60;;
41466;SDS011;27205;53.690;19.948;2022-10-31T22:20:50;10.70;;;10.00;;
41466;SDS011;27205;53.690;19.948;2022-10-31T22:25:53;12.50;;;11.40;;
41466;SDS011;27205;53.690;19.948;2022-10-31T22:30:56;9.80;;;9.10;;
41466;SDS011;27205;53.690;19.948;2022-10-31T22:36:00;9.70;;;9.00;;
41466;SDS011;27205;53.690;19.948;2022-10-31T22:41:06;9.90;;;9.20;;
41466;SDS011;27205;53.690;19.948;2022-10-31T22:46:15;6.90;;;6.40;;
41466;SDS011;27205;53.690;19.948;2022-10-31T22:51:26;8.30;;;7.80;;
41466;SDS011;27205;53.690;19.948;2022-10-31T22:56:32;6.60;;;6.20;;
41466;SDS011;27205;53.690;19.948;2022-10-31T23:01:36;8.50;;;7.90;;
41466;SDS011;27205;53.690;19.948;2022-10-31T23:11:44;7.80;;;7.30;;
41466;SDS011;27205;53.690;19.948;2022-10-31T23:21:53;8.00;;;7.50;;
41466;SDS011;27205;53.690;19.948;2022-10-31T23:27:17;9.10;;;8.40;;
41466;SDS011;27205;53.690;19.948;2022-10-31T23:32:26;8.10;;;7.50;;
41466;SDS011;27205;53.690;19.948;2022-10-31T23:37:37;8.70;;;7.90;;
41466;SDS011;27205;53.690;19.948;2022-10-31T23:42:41;9.90;;;9.20;;
41466;SDS011;27205;53.690;19.948;2022-10-31T23:47:44;8.60;;;7.80;;
41466;SDS011;27205;53.690;19.948;2022-10-31T23:52:47;8.60;;;7.90;;
41466;SDS011;27205;53.690;19.948;2022-10-31T23:57:51;9.60;;;8.80;;
